<?xml version="1.0" encoding="UTF-8" standalone="no" ?>
<gpx xmlns="http://www.topografix.com/GPX/1/1" xmlns:xsi="http://www.w3.org/2001/XMLSchema-instance" xsi:schemaLocation="http://www.topografix.com/GPX/1/1 http://www.topografix.com/GPX/1/1/gpx.xsd" version="1.1" creator="VisuGPX - https://www.visugpx.com">
  <metadata>
    <name>St Jurs La Palud</name>
    <desc><![CDATA[Randonnée 09/2017 .....................................]]></desc>
  </metadata>
  <trk>
    <name><![CDATA[OR-7888199--Saint-Jurs:St Jurs - la Palud]]></name>
    <trkseg>
      <trkpt lat="43.89846" lon="6.18022">
        <ele>828</ele>
        <time>2017-09-07T08:38:57Z</time>
      </trkpt>
      <trkpt lat="43.8988" lon="6.18181">
        <ele>834</ele>
        <time>2017-09-07T08:40:57Z</time>
      </trkpt>
      <trkpt lat="43.89928" lon="6.18369">
        <ele>842</ele>
        <time>2017-09-07T08:42:57Z</time>
      </trkpt>
      <trkpt lat="43.89964" lon="6.18474">
        <ele>842</ele>
        <time>2017-09-07T08:44:57Z</time>
      </trkpt>
      <trkpt lat="43.90017" lon="6.18662">
        <ele>841</ele>
        <time>2017-09-07T08:46:57Z</time>
      </trkpt>
      <trkpt lat="43.89997" lon="6.18748">
        <ele>838</ele>
        <time>2017-09-07T08:48:57Z</time>
      </trkpt>
      <trkpt lat="43.89961" lon="6.18789">
        <ele>840</ele>
        <time>2017-09-07T08:50:57Z</time>
      </trkpt>
      <trkpt lat="43.89923" lon="6.19006">
        <ele>848</ele>
        <time>2017-09-07T08:52:57Z</time>
      </trkpt>
      <trkpt lat="43.8992" lon="6.19175">
        <ele>841</ele>
        <time>2017-09-07T08:54:57Z</time>
      </trkpt>
      <trkpt lat="43.89895" lon="6.19289">
        <ele>834</ele>
        <time>2017-09-07T08:56:57Z</time>
      </trkpt>
      <trkpt lat="43.89844" lon="6.1936">
        <ele>838</ele>
        <time>2017-09-07T08:58:57Z</time>
      </trkpt>
      <trkpt lat="43.89815" lon="6.19601">
        <ele>848</ele>
        <time>2017-09-07T09:00:57Z</time>
      </trkpt>
      <trkpt lat="43.89762" lon="6.19644">
        <ele>844</ele>
        <time>2017-09-07T09:02:57Z</time>
      </trkpt>
      <trkpt lat="43.89766" lon="6.19751">
        <ele>852</ele>
        <time>2017-09-07T09:04:57Z</time>
      </trkpt>
      <trkpt lat="43.89742" lon="6.198">
        <ele>856</ele>
        <time>2017-09-07T09:06:57Z</time>
      </trkpt>
      <trkpt lat="43.8968" lon="6.19735">
        <ele>844</ele>
        <time>2017-09-07T09:08:57Z</time>
      </trkpt>
      <trkpt lat="43.89627" lon="6.1966">
        <ele>829</ele>
        <time>2017-09-07T09:10:57Z</time>
      </trkpt>
      <trkpt lat="43.89569" lon="6.19737">
        <ele>835</ele>
        <time>2017-09-07T09:12:57Z</time>
      </trkpt>
      <trkpt lat="43.89511" lon="6.19836">
        <ele>834</ele>
        <time>2017-09-07T09:14:57Z</time>
      </trkpt>
      <trkpt lat="43.89431" lon="6.19931">
        <ele>833</ele>
        <time>2017-09-07T09:16:57Z</time>
      </trkpt>
      <trkpt lat="43.89396" lon="6.19925">
        <ele>834</ele>
        <time>2017-09-07T09:18:57Z</time>
      </trkpt>
      <trkpt lat="43.89389" lon="6.19825">
        <ele>830</ele>
        <time>2017-09-07T09:20:57Z</time>
      </trkpt>
      <trkpt lat="43.89375" lon="6.19797">
        <ele>830</ele>
        <time>2017-09-07T09:22:57Z</time>
      </trkpt>
      <trkpt lat="43.89284" lon="6.19802">
        <ele>837</ele>
        <time>2017-09-07T09:24:57Z</time>
      </trkpt>
      <trkpt lat="43.8926" lon="6.19759">
        <ele>836</ele>
        <time>2017-09-07T09:26:57Z</time>
      </trkpt>
      <trkpt lat="43.89211" lon="6.19656">
        <ele>846</ele>
        <time>2017-09-07T09:28:57Z</time>
      </trkpt>
      <trkpt lat="43.89172" lon="6.19637">
        <ele>850</ele>
        <time>2017-09-07T09:30:57Z</time>
      </trkpt>
      <trkpt lat="43.89069" lon="6.19673">
        <ele>854</ele>
        <time>2017-09-07T09:32:57Z</time>
      </trkpt>
      <trkpt lat="43.88978" lon="6.1955">
        <ele>851</ele>
        <time>2017-09-07T09:34:57Z</time>
      </trkpt>
      <trkpt lat="43.88906" lon="6.19594">
        <ele>854</ele>
        <time>2017-09-07T09:36:57Z</time>
      </trkpt>
      <trkpt lat="43.88824" lon="6.19617">
        <ele>844</ele>
        <time>2017-09-07T09:38:57Z</time>
      </trkpt>
      <trkpt lat="43.88793" lon="6.19633">
        <ele>840</ele>
        <time>2017-09-07T09:40:57Z</time>
      </trkpt>
      <trkpt lat="43.8877" lon="6.19667">
        <ele>840</ele>
        <time>2017-09-07T09:42:57Z</time>
      </trkpt>
      <trkpt lat="43.88754" lon="6.19721">
        <ele>844</ele>
        <time>2017-09-07T09:44:57Z</time>
      </trkpt>
      <trkpt lat="43.88723" lon="6.19709">
        <ele>837</ele>
        <time>2017-09-07T09:46:57Z</time>
      </trkpt>
      <trkpt lat="43.88672" lon="6.19747">
        <ele>833</ele>
        <time>2017-09-07T09:48:57Z</time>
      </trkpt>
      <trkpt lat="43.88624" lon="6.19799">
        <ele>827</ele>
        <time>2017-09-07T09:50:57Z</time>
      </trkpt>
      <trkpt lat="43.88611" lon="6.19838">
        <ele>827</ele>
        <time>2017-09-07T09:52:57Z</time>
      </trkpt>
      <trkpt lat="43.88608" lon="6.19877">
        <ele>830</ele>
        <time>2017-09-07T09:54:57Z</time>
      </trkpt>
      <trkpt lat="43.8858" lon="6.19887">
        <ele>825</ele>
        <time>2017-09-07T09:56:57Z</time>
      </trkpt>
      <trkpt lat="43.88561" lon="6.19908">
        <ele>825</ele>
        <time>2017-09-07T09:58:57Z</time>
      </trkpt>
      <trkpt lat="43.88538" lon="6.19973">
        <ele>824</ele>
        <time>2017-09-07T10:00:57Z</time>
      </trkpt>
      <trkpt lat="43.88507" lon="6.20073">
        <ele>822</ele>
        <time>2017-09-07T10:02:57Z</time>
      </trkpt>
      <trkpt lat="43.88474" lon="6.20186">
        <ele>826</ele>
        <time>2017-09-07T10:04:57Z</time>
      </trkpt>
      <trkpt lat="43.88476" lon="6.20242">
        <ele>827</ele>
        <time>2017-09-07T10:06:57Z</time>
      </trkpt>
      <trkpt lat="43.88455" lon="6.20306">
        <ele>832</ele>
        <time>2017-09-07T10:08:57Z</time>
      </trkpt>
      <trkpt lat="43.88396" lon="6.20425">
        <ele>839</ele>
        <time>2017-09-07T10:10:57Z</time>
      </trkpt>
      <trkpt lat="43.8839" lon="6.20506">
        <ele>846</ele>
        <time>2017-09-07T10:12:57Z</time>
      </trkpt>
      <trkpt lat="43.88355" lon="6.20518">
        <ele>853</ele>
        <time>2017-09-07T10:14:57Z</time>
      </trkpt>
      <trkpt lat="43.88353" lon="6.20552">
        <ele>853</ele>
        <time>2017-09-07T10:16:57Z</time>
      </trkpt>
      <trkpt lat="43.88314" lon="6.20596">
        <ele>862</ele>
        <time>2017-09-07T10:18:57Z</time>
      </trkpt>
      <trkpt lat="43.8822" lon="6.20677">
        <ele>885</ele>
        <time>2017-09-07T10:20:57Z</time>
      </trkpt>
      <trkpt lat="43.88157" lon="6.20761">
        <ele>897</ele>
        <time>2017-09-07T10:22:57Z</time>
      </trkpt>
      <trkpt lat="43.88136" lon="6.20883">
        <ele>899</ele>
        <time>2017-09-07T10:24:57Z</time>
      </trkpt>
      <trkpt lat="43.88146" lon="6.20984">
        <ele>901</ele>
        <time>2017-09-07T10:26:57Z</time>
      </trkpt>
      <trkpt lat="43.88163" lon="6.21077">
        <ele>901</ele>
        <time>2017-09-07T10:28:57Z</time>
      </trkpt>
      <trkpt lat="43.88226" lon="6.21287">
        <ele>908</ele>
        <time>2017-09-07T10:30:57Z</time>
      </trkpt>
      <trkpt lat="43.88228" lon="6.21345">
        <ele>907</ele>
        <time>2017-09-07T10:32:57Z</time>
      </trkpt>
      <trkpt lat="43.88257" lon="6.21469">
        <ele>910</ele>
        <time>2017-09-07T10:34:57Z</time>
      </trkpt>
      <trkpt lat="43.88215" lon="6.21597">
        <ele>912</ele>
        <time>2017-09-07T10:36:57Z</time>
      </trkpt>
      <trkpt lat="43.88255" lon="6.21781">
        <ele>911</ele>
        <time>2017-09-07T10:38:57Z</time>
      </trkpt>
      <trkpt lat="43.88271" lon="6.2187">
        <ele>918</ele>
        <time>2017-09-07T10:40:57Z</time>
      </trkpt>
      <trkpt lat="43.88337" lon="6.21954">
        <ele>924</ele>
        <time>2017-09-07T10:42:57Z</time>
      </trkpt>
      <trkpt lat="43.88403" lon="6.22051">
        <ele>930</ele>
        <time>2017-09-07T10:44:57Z</time>
      </trkpt>
      <trkpt lat="43.88416" lon="6.22133">
        <ele>930</ele>
        <time>2017-09-07T10:46:57Z</time>
      </trkpt>
      <trkpt lat="43.88432" lon="6.2216">
        <ele>933</ele>
        <time>2017-09-07T10:48:57Z</time>
      </trkpt>
      <trkpt lat="43.88448" lon="6.22179">
        <ele>936</ele>
        <time>2017-09-07T10:50:57Z</time>
      </trkpt>
      <trkpt lat="43.88458" lon="6.22205">
        <ele>937</ele>
        <time>2017-09-07T10:52:57Z</time>
      </trkpt>
      <trkpt lat="43.88454" lon="6.22239">
        <ele>937</ele>
        <time>2017-09-07T10:54:57Z</time>
      </trkpt>
      <trkpt lat="43.88488" lon="6.22307">
        <ele>934</ele>
        <time>2017-09-07T10:56:57Z</time>
      </trkpt>
      <trkpt lat="43.88549" lon="6.22447">
        <ele>941</ele>
        <time>2017-09-07T10:58:57Z</time>
      </trkpt>
      <trkpt lat="43.88638" lon="6.22491">
        <ele>949</ele>
        <time>2017-09-07T11:00:57Z</time>
      </trkpt>
      <trkpt lat="43.88655" lon="6.22543">
        <ele>956</ele>
        <time>2017-09-07T11:02:57Z</time>
      </trkpt>
      <trkpt lat="43.88743" lon="6.22664">
        <ele>967</ele>
        <time>2017-09-07T11:04:57Z</time>
      </trkpt>
      <trkpt lat="43.88769" lon="6.22709">
        <ele>974</ele>
        <time>2017-09-07T11:06:57Z</time>
      </trkpt>
      <trkpt lat="43.88677" lon="6.22662">
        <ele>973</ele>
        <time>2017-09-07T11:08:57Z</time>
      </trkpt>
      <trkpt lat="43.88656" lon="6.22693">
        <ele>975</ele>
        <time>2017-09-07T11:10:57Z</time>
      </trkpt>
      <trkpt lat="43.88661" lon="6.22797">
        <ele>985</ele>
        <time>2017-09-07T11:12:57Z</time>
      </trkpt>
      <trkpt lat="43.88631" lon="6.22837">
        <ele>983</ele>
        <time>2017-09-07T11:14:57Z</time>
      </trkpt>
      <trkpt lat="43.88548" lon="6.2287">
        <ele>972</ele>
        <time>2017-09-07T11:16:57Z</time>
      </trkpt>
      <trkpt lat="43.88534" lon="6.22953">
        <ele>976</ele>
        <time>2017-09-07T11:18:57Z</time>
      </trkpt>
      <trkpt lat="43.88504" lon="6.23025">
        <ele>972</ele>
        <time>2017-09-07T11:20:57Z</time>
      </trkpt>
      <trkpt lat="43.88486" lon="6.23075">
        <ele>975</ele>
        <time>2017-09-07T11:22:57Z</time>
      </trkpt>
      <trkpt lat="43.88452" lon="6.23064">
        <ele>978</ele>
        <time>2017-09-07T11:24:57Z</time>
      </trkpt>
      <trkpt lat="43.88442" lon="6.22956">
        <ele>980</ele>
        <time>2017-09-07T11:26:57Z</time>
      </trkpt>
      <trkpt lat="43.8842" lon="6.22821">
        <ele>982</ele>
        <time>2017-09-07T11:28:57Z</time>
      </trkpt>
      <trkpt lat="43.88387" lon="6.22583">
        <ele>986</ele>
        <time>2017-09-07T11:30:57Z</time>
      </trkpt>
      <trkpt lat="43.88266" lon="6.22651">
        <ele>993</ele>
        <time>2017-09-07T11:32:57Z</time>
      </trkpt>
      <trkpt lat="43.88239" lon="6.22742">
        <ele>1002</ele>
        <time>2017-09-07T11:34:57Z</time>
      </trkpt>
      <trkpt lat="43.88231" lon="6.22822">
        <ele>1008</ele>
        <time>2017-09-07T11:36:57Z</time>
      </trkpt>
      <trkpt lat="43.88223" lon="6.22895">
        <ele>1011</ele>
        <time>2017-09-07T11:38:57Z</time>
      </trkpt>
      <trkpt lat="43.8823" lon="6.23007">
        <ele>1019</ele>
        <time>2017-09-07T11:40:57Z</time>
      </trkpt>
      <trkpt lat="43.88205" lon="6.23089">
        <ele>1025</ele>
        <time>2017-09-07T11:42:57Z</time>
      </trkpt>
      <trkpt lat="43.88194" lon="6.23175">
        <ele>1035</ele>
        <time>2017-09-07T11:44:57Z</time>
      </trkpt>
      <trkpt lat="43.88205" lon="6.23224">
        <ele>1041</ele>
        <time>2017-09-07T11:46:57Z</time>
      </trkpt>
      <trkpt lat="43.88128" lon="6.23188">
        <ele>1046</ele>
        <time>2017-09-07T11:48:57Z</time>
      </trkpt>
      <trkpt lat="43.88059" lon="6.2319">
        <ele>1053</ele>
        <time>2017-09-07T11:50:57Z</time>
      </trkpt>
      <trkpt lat="43.88013" lon="6.2314">
        <ele>1049</ele>
        <time>2017-09-07T11:52:57Z</time>
      </trkpt>
      <trkpt lat="43.87957" lon="6.23157">
        <ele>1050</ele>
        <time>2017-09-07T11:54:57Z</time>
      </trkpt>
      <trkpt lat="43.87891" lon="6.23197">
        <ele>1054</ele>
        <time>2017-09-07T11:56:57Z</time>
      </trkpt>
      <trkpt lat="43.87812" lon="6.23244">
        <ele>1059</ele>
        <time>2017-09-07T11:58:57Z</time>
      </trkpt>
      <trkpt lat="43.87732" lon="6.23278">
        <ele>1068</ele>
        <time>2017-09-07T12:00:57Z</time>
      </trkpt>
      <trkpt lat="43.87656" lon="6.23301">
        <ele>1070</ele>
        <time>2017-09-07T12:02:57Z</time>
      </trkpt>
      <trkpt lat="43.87577" lon="6.23314">
        <ele>1064</ele>
        <time>2017-09-07T12:04:57Z</time>
      </trkpt>
      <trkpt lat="43.87428" lon="6.23278">
        <ele>1057</ele>
        <time>2017-09-07T12:06:57Z</time>
      </trkpt>
      <trkpt lat="43.87366" lon="6.23246">
        <ele>1055</ele>
        <time>2017-09-07T12:08:57Z</time>
      </trkpt>
      <trkpt lat="43.87283" lon="6.23198">
        <ele>1057</ele>
        <time>2017-09-07T12:10:57Z</time>
      </trkpt>
      <trkpt lat="43.87275" lon="6.23149">
        <ele>1055</ele>
        <time>2017-09-07T12:12:57Z</time>
      </trkpt>
      <trkpt lat="43.87198" lon="6.23088">
        <ele>1054</ele>
        <time>2017-09-07T12:14:57Z</time>
      </trkpt>
      <trkpt lat="43.87142" lon="6.23057">
        <ele>1053</ele>
        <time>2017-09-07T12:16:57Z</time>
      </trkpt>
      <trkpt lat="43.87083" lon="6.23029">
        <ele>1051</ele>
        <time>2017-09-07T12:18:57Z</time>
      </trkpt>
      <trkpt lat="43.87022" lon="6.23011">
        <ele>1050</ele>
        <time>2017-09-07T12:20:57Z</time>
      </trkpt>
      <trkpt lat="43.86959" lon="6.23013">
        <ele>1049</ele>
        <time>2017-09-07T12:22:57Z</time>
      </trkpt>
      <trkpt lat="43.86849" lon="6.22958">
        <ele>1045</ele>
        <time>2017-09-07T12:24:57Z</time>
      </trkpt>
      <trkpt lat="43.86696" lon="6.22887">
        <ele>1037</ele>
        <time>2017-09-07T12:26:57Z</time>
      </trkpt>
      <trkpt lat="43.86635" lon="6.22857">
        <ele>1034</ele>
        <time>2017-09-07T12:28:57Z</time>
      </trkpt>
      <trkpt lat="43.86341" lon="6.22932">
        <ele>1017</ele>
        <time>2017-09-07T12:30:57Z</time>
      </trkpt>
      <trkpt lat="43.86122" lon="6.22907">
        <ele>1016</ele>
        <time>2017-09-07T12:32:57Z</time>
      </trkpt>
      <trkpt lat="43.85866" lon="6.22939">
        <ele>992</ele>
        <time>2017-09-07T12:34:57Z</time>
      </trkpt>
      <trkpt lat="43.85831" lon="6.22889">
        <ele>989</ele>
        <time>2017-09-07T12:36:57Z</time>
      </trkpt>
      <trkpt lat="43.85718" lon="6.22865">
        <ele>974</ele>
        <time>2017-09-07T12:38:57Z</time>
      </trkpt>
      <trkpt lat="43.85775" lon="6.22965">
        <ele>968</ele>
        <time>2017-09-07T12:40:57Z</time>
      </trkpt>
      <trkpt lat="43.85793" lon="6.23118">
        <ele>950</ele>
        <time>2017-09-07T12:42:57Z</time>
      </trkpt>
      <trkpt lat="43.8583" lon="6.23208">
        <ele>944</ele>
        <time>2017-09-07T12:44:57Z</time>
      </trkpt>
      <trkpt lat="43.85861" lon="6.23244">
        <ele>943</ele>
        <time>2017-09-07T12:46:57Z</time>
      </trkpt>
      <trkpt lat="43.85861" lon="6.23286">
        <ele>937</ele>
        <time>2017-09-07T12:48:57Z</time>
      </trkpt>
      <trkpt lat="43.85872" lon="6.23313">
        <ele>935</ele>
        <time>2017-09-07T12:50:57Z</time>
      </trkpt>
      <trkpt lat="43.85878" lon="6.23335">
        <ele>932</ele>
        <time>2017-09-07T12:52:57Z</time>
      </trkpt>
      <trkpt lat="43.85914" lon="6.23361">
        <ele>935</ele>
        <time>2017-09-07T12:54:57Z</time>
      </trkpt>
      <trkpt lat="43.85953" lon="6.2338">
        <ele>935</ele>
        <time>2017-09-07T12:56:57Z</time>
      </trkpt>
      <trkpt lat="43.86023" lon="6.2336">
        <ele>935</ele>
        <time>2017-09-07T12:58:57Z</time>
      </trkpt>
      <trkpt lat="43.85984" lon="6.23402">
        <ele>934</ele>
        <time>2017-09-07T13:00:57Z</time>
      </trkpt>
      <trkpt lat="43.86004" lon="6.23496">
        <ele>943</ele>
        <time>2017-09-07T13:02:57Z</time>
      </trkpt>
      <trkpt lat="43.85942" lon="6.23459">
        <ele>944</ele>
        <time>2017-09-07T13:04:57Z</time>
      </trkpt>
      <trkpt lat="43.85972" lon="6.23538">
        <ele>953</ele>
        <time>2017-09-07T13:06:57Z</time>
      </trkpt>
      <trkpt lat="43.85902" lon="6.23516">
        <ele>960</ele>
        <time>2017-09-07T13:08:57Z</time>
      </trkpt>
      <trkpt lat="43.85864" lon="6.23505">
        <ele>963</ele>
        <time>2017-09-07T13:10:57Z</time>
      </trkpt>
      <trkpt lat="43.85871" lon="6.23546">
        <ele>970</ele>
        <time>2017-09-07T13:12:57Z</time>
      </trkpt>
      <trkpt lat="43.85751" lon="6.23533">
        <ele>976</ele>
        <time>2017-09-07T13:14:57Z</time>
      </trkpt>
      <trkpt lat="43.85673" lon="6.23628">
        <ele>976</ele>
        <time>2017-09-07T13:16:57Z</time>
      </trkpt>
      <trkpt lat="43.85624" lon="6.23759">
        <ele>975</ele>
        <time>2017-09-07T13:18:57Z</time>
      </trkpt>
      <trkpt lat="43.85635" lon="6.24007">
        <ele>968</ele>
        <time>2017-09-07T13:20:57Z</time>
      </trkpt>
      <trkpt lat="43.85614" lon="6.24123">
        <ele>961</ele>
        <time>2017-09-07T13:22:57Z</time>
      </trkpt>
      <trkpt lat="43.85641" lon="6.24201">
        <ele>956</ele>
        <time>2017-09-07T13:24:57Z</time>
      </trkpt>
      <trkpt lat="43.85603" lon="6.24266">
        <ele>952</ele>
        <time>2017-09-07T13:26:57Z</time>
      </trkpt>
      <trkpt lat="43.85644" lon="6.24355">
        <ele>952</ele>
        <time>2017-09-07T13:28:57Z</time>
      </trkpt>
      <trkpt lat="43.85679" lon="6.24435">
        <ele>957</ele>
        <time>2017-09-07T13:30:57Z</time>
      </trkpt>
      <trkpt lat="43.85639" lon="6.24451">
        <ele>956</ele>
        <time>2017-09-07T13:32:57Z</time>
      </trkpt>
      <trkpt lat="43.85581" lon="6.24435">
        <ele>955</ele>
        <time>2017-09-07T13:34:57Z</time>
      </trkpt>
      <trkpt lat="43.85551" lon="6.24434">
        <ele>953</ele>
        <time>2017-09-07T13:36:57Z</time>
      </trkpt>
      <trkpt lat="43.85504" lon="6.24457">
        <ele>953</ele>
        <time>2017-09-07T13:38:57Z</time>
      </trkpt>
      <trkpt lat="43.85445" lon="6.24428">
        <ele>954</ele>
        <time>2017-09-07T13:40:57Z</time>
      </trkpt>
      <trkpt lat="43.85421" lon="6.24417">
        <ele>955</ele>
        <time>2017-09-07T13:42:57Z</time>
      </trkpt>
      <trkpt lat="43.85368" lon="6.24442">
        <ele>959</ele>
        <time>2017-09-07T13:44:57Z</time>
      </trkpt>
      <trkpt lat="43.85292" lon="6.2449">
        <ele>963</ele>
        <time>2017-09-07T13:46:57Z</time>
      </trkpt>
      <trkpt lat="43.85218" lon="6.24536">
        <ele>962</ele>
        <time>2017-09-07T13:48:57Z</time>
      </trkpt>
      <trkpt lat="43.85061" lon="6.24656">
        <ele>963</ele>
        <time>2017-09-07T13:50:57Z</time>
      </trkpt>
      <trkpt lat="43.84566" lon="6.24891">
        <ele>941</ele>
        <time>2017-09-07T13:52:57Z</time>
      </trkpt>
      <trkpt lat="43.84485" lon="6.24989">
        <ele>935</ele>
        <time>2017-09-07T13:54:57Z</time>
      </trkpt>
      <trkpt lat="43.84467" lon="6.25209">
        <ele>936</ele>
        <time>2017-09-07T13:56:57Z</time>
      </trkpt>
      <trkpt lat="43.84405" lon="6.2515">
        <ele>933</ele>
        <time>2017-09-07T13:58:57Z</time>
      </trkpt>
      <trkpt lat="43.84372" lon="6.25218">
        <ele>937</ele>
        <time>2017-09-07T14:00:57Z</time>
      </trkpt>
      <trkpt lat="43.84345" lon="6.2527">
        <ele>939</ele>
        <time>2017-09-07T14:02:57Z</time>
      </trkpt>
      <trkpt lat="43.84275" lon="6.2532">
        <ele>939</ele>
        <time>2017-09-07T14:04:57Z</time>
      </trkpt>
      <trkpt lat="43.84204" lon="6.25373">
        <ele>938</ele>
        <time>2017-09-07T14:06:57Z</time>
      </trkpt>
      <trkpt lat="43.84149" lon="6.2543">
        <ele>935</ele>
        <time>2017-09-07T14:08:57Z</time>
      </trkpt>
      <trkpt lat="43.84078" lon="6.25514">
        <ele>928</ele>
        <time>2017-09-07T14:10:57Z</time>
      </trkpt>
      <trkpt lat="43.84011" lon="6.25598">
        <ele>922</ele>
        <time>2017-09-07T14:12:57Z</time>
      </trkpt>
      <trkpt lat="43.83959" lon="6.25694">
        <ele>917</ele>
        <time>2017-09-07T14:14:57Z</time>
      </trkpt>
      <trkpt lat="43.83868" lon="6.25772">
        <ele>911</ele>
        <time>2017-09-07T14:16:57Z</time>
      </trkpt>
      <trkpt lat="43.83816" lon="6.2583">
        <ele>909</ele>
        <time>2017-09-07T14:18:57Z</time>
      </trkpt>
      <trkpt lat="43.83665" lon="6.25944">
        <ele>893</ele>
        <time>2017-09-07T14:20:57Z</time>
      </trkpt>
      <trkpt lat="43.83516" lon="6.26058">
        <ele>881</ele>
        <time>2017-09-07T14:22:57Z</time>
      </trkpt>
      <trkpt lat="43.8344" lon="6.26114">
        <ele>879</ele>
        <time>2017-09-07T14:24:57Z</time>
      </trkpt>
      <trkpt lat="43.83369" lon="6.26158">
        <ele>881</ele>
        <time>2017-09-07T14:26:57Z</time>
      </trkpt>
      <trkpt lat="43.8326" lon="6.26239">
        <ele>885</ele>
        <time>2017-09-07T14:28:57Z</time>
      </trkpt>
      <trkpt lat="43.83158" lon="6.26309">
        <ele>891</ele>
        <time>2017-09-07T14:30:57Z</time>
      </trkpt>
      <trkpt lat="43.83062" lon="6.26386">
        <ele>897</ele>
        <time>2017-09-07T14:32:57Z</time>
      </trkpt>
      <trkpt lat="43.82998" lon="6.26433">
        <ele>895</ele>
        <time>2017-09-07T14:34:57Z</time>
      </trkpt>
      <trkpt lat="43.82893" lon="6.26519">
        <ele>887</ele>
        <time>2017-09-07T14:36:57Z</time>
      </trkpt>
      <trkpt lat="43.82839" lon="6.26593">
        <ele>891</ele>
        <time>2017-09-07T14:38:57Z</time>
      </trkpt>
      <trkpt lat="43.82847" lon="6.26703">
        <ele>893</ele>
        <time>2017-09-07T14:40:57Z</time>
      </trkpt>
      <trkpt lat="43.82807" lon="6.26762">
        <ele>882</ele>
        <time>2017-09-07T14:42:57Z</time>
      </trkpt>
      <trkpt lat="43.82806" lon="6.26804">
        <ele>886</ele>
        <time>2017-09-07T14:44:57Z</time>
      </trkpt>
      <trkpt lat="43.82756" lon="6.26801">
        <ele>870</ele>
        <time>2017-09-07T14:46:57Z</time>
      </trkpt>
      <trkpt lat="43.82726" lon="6.26869">
        <ele>875</ele>
        <time>2017-09-07T14:48:57Z</time>
      </trkpt>
      <trkpt lat="43.82695" lon="6.26843">
        <ele>863</ele>
        <time>2017-09-07T14:50:57Z</time>
      </trkpt>
      <trkpt lat="43.82642" lon="6.26875">
        <ele>863</ele>
        <time>2017-09-07T14:52:57Z</time>
      </trkpt>
      <trkpt lat="43.82585" lon="6.26916">
        <ele>858</ele>
        <time>2017-09-07T14:54:57Z</time>
      </trkpt>
      <trkpt lat="43.82524" lon="6.27016">
        <ele>863</ele>
        <time>2017-09-07T14:56:57Z</time>
      </trkpt>
      <trkpt lat="43.82463" lon="6.27115">
        <ele>861</ele>
        <time>2017-09-07T14:58:57Z</time>
      </trkpt>
      <trkpt lat="43.82395" lon="6.27133">
        <ele>860</ele>
        <time>2017-09-07T15:00:57Z</time>
      </trkpt>
      <trkpt lat="43.82331" lon="6.2715">
        <ele>862</ele>
        <time>2017-09-07T15:02:57Z</time>
      </trkpt>
      <trkpt lat="43.82291" lon="6.27165">
        <ele>861</ele>
        <time>2017-09-07T15:04:57Z</time>
      </trkpt>
      <trkpt lat="43.82277" lon="6.27202">
        <ele>863</ele>
        <time>2017-09-07T15:06:57Z</time>
      </trkpt>
      <trkpt lat="43.82231" lon="6.27215">
        <ele>862</ele>
        <time>2017-09-07T15:08:57Z</time>
      </trkpt>
      <trkpt lat="43.82179" lon="6.27265">
        <ele>866</ele>
        <time>2017-09-07T15:10:57Z</time>
      </trkpt>
      <trkpt lat="43.8208" lon="6.27381">
        <ele>870</ele>
        <time>2017-09-07T15:12:57Z</time>
      </trkpt>
      <trkpt lat="43.82019" lon="6.27384">
        <ele>867</ele>
        <time>2017-09-07T15:14:57Z</time>
      </trkpt>
      <trkpt lat="43.81972" lon="6.27355">
        <ele>871</ele>
        <time>2017-09-07T15:16:57Z</time>
      </trkpt>
      <trkpt lat="43.8193" lon="6.27413">
        <ele>868</ele>
        <time>2017-09-07T15:18:57Z</time>
      </trkpt>
      <trkpt lat="43.81884" lon="6.27441">
        <ele>869</ele>
        <time>2017-09-07T15:20:57Z</time>
      </trkpt>
      <trkpt lat="43.81851" lon="6.2746">
        <ele>870</ele>
        <time>2017-09-07T15:22:57Z</time>
      </trkpt>
      <trkpt lat="43.81781" lon="6.27414">
        <ele>883</ele>
        <time>2017-09-07T15:24:57Z</time>
      </trkpt>
      <trkpt lat="43.81819" lon="6.2736">
        <ele>887</ele>
        <time>2017-09-07T15:26:57Z</time>
      </trkpt>
      <trkpt lat="43.81868" lon="6.27168">
        <ele>909</ele>
        <time>2017-09-07T15:28:57Z</time>
      </trkpt>
      <trkpt lat="43.81978" lon="6.26997">
        <ele>933</ele>
        <time>2017-09-07T15:30:57Z</time>
      </trkpt>
      <trkpt lat="43.8192" lon="6.27032">
        <ele>936</ele>
        <time>2017-09-07T15:32:57Z</time>
      </trkpt>
      <trkpt lat="43.81836" lon="6.26995">
        <ele>943</ele>
        <time>2017-09-07T15:34:57Z</time>
      </trkpt>
      <trkpt lat="43.81772" lon="6.2695">
        <ele>952</ele>
        <time>2017-09-07T15:36:57Z</time>
      </trkpt>
      <trkpt lat="43.81708" lon="6.26947">
        <ele>952</ele>
        <time>2017-09-07T15:38:57Z</time>
      </trkpt>
      <trkpt lat="43.81685" lon="6.26928">
        <ele>956</ele>
        <time>2017-09-07T15:40:57Z</time>
      </trkpt>
      <trkpt lat="43.81655" lon="6.26938">
        <ele>954</ele>
        <time>2017-09-07T15:42:57Z</time>
      </trkpt>
      <trkpt lat="43.81614" lon="6.26933">
        <ele>954</ele>
        <time>2017-09-07T15:44:57Z</time>
      </trkpt>
      <trkpt lat="43.81577" lon="6.26896">
        <ele>962</ele>
        <time>2017-09-07T15:46:57Z</time>
      </trkpt>
      <trkpt lat="43.81556" lon="6.2681">
        <ele>980</ele>
        <time>2017-09-07T15:48:57Z</time>
      </trkpt>
      <trkpt lat="43.81492" lon="6.26748">
        <ele>987</ele>
        <time>2017-09-07T15:50:57Z</time>
      </trkpt>
      <trkpt lat="43.81415" lon="6.26695">
        <ele>1002</ele>
        <time>2017-09-07T15:52:57Z</time>
      </trkpt>
      <trkpt lat="43.81319" lon="6.2667">
        <ele>1021</ele>
        <time>2017-09-07T15:54:57Z</time>
      </trkpt>
      <trkpt lat="43.81262" lon="6.26673">
        <ele>1030</ele>
        <time>2017-09-07T15:56:57Z</time>
      </trkpt>
      <trkpt lat="43.81136" lon="6.2669">
        <ele>1053</ele>
        <time>2017-09-07T15:58:57Z</time>
      </trkpt>
      <trkpt lat="43.81012" lon="6.26722">
        <ele>1070</ele>
        <time>2017-09-07T16:00:57Z</time>
      </trkpt>
      <trkpt lat="43.80839" lon="6.26715">
        <ele>1094</ele>
        <time>2017-09-07T16:02:57Z</time>
      </trkpt>
      <trkpt lat="43.80697" lon="6.26715">
        <ele>1124</ele>
        <time>2017-09-07T16:04:57Z</time>
      </trkpt>
      <trkpt lat="43.80567" lon="6.26762">
        <ele>1139</ele>
        <time>2017-09-07T16:06:57Z</time>
      </trkpt>
      <trkpt lat="43.80514" lon="6.2684">
        <ele>1143</ele>
        <time>2017-09-07T16:08:57Z</time>
      </trkpt>
      <trkpt lat="43.80518" lon="6.26664">
        <ele>1160</ele>
        <time>2017-09-07T16:10:57Z</time>
      </trkpt>
      <trkpt lat="43.80523" lon="6.26578">
        <ele>1166</ele>
        <time>2017-09-07T16:12:57Z</time>
      </trkpt>
      <trkpt lat="43.80506" lon="6.26588">
        <ele>1164</ele>
        <time>2017-09-07T16:14:57Z</time>
      </trkpt>
      <trkpt lat="43.80458" lon="6.26682">
        <ele>1166</ele>
        <time>2017-09-07T16:16:57Z</time>
      </trkpt>
      <trkpt lat="43.80421" lon="6.26741">
        <ele>1179</ele>
        <time>2017-09-07T16:18:57Z</time>
      </trkpt>
      <trkpt lat="43.80313" lon="6.26833">
        <ele>1195</ele>
        <time>2017-09-07T16:20:57Z</time>
      </trkpt>
      <trkpt lat="43.80239" lon="6.26931">
        <ele>1199</ele>
        <time>2017-09-07T16:22:57Z</time>
      </trkpt>
      <trkpt lat="43.80136" lon="6.26957">
        <ele>1207</ele>
        <time>2017-09-07T16:24:57Z</time>
      </trkpt>
      <trkpt lat="43.80057" lon="6.27018">
        <ele>1207</ele>
        <time>2017-09-07T16:26:57Z</time>
      </trkpt>
      <trkpt lat="43.79962" lon="6.27123">
        <ele>1209</ele>
        <time>2017-09-07T16:28:57Z</time>
      </trkpt>
      <trkpt lat="43.79825" lon="6.27323">
        <ele>1217</ele>
        <time>2017-09-07T16:30:57Z</time>
      </trkpt>
      <trkpt lat="43.79731" lon="6.27469">
        <ele>1215</ele>
        <time>2017-09-07T16:32:57Z</time>
      </trkpt>
      <trkpt lat="43.79627" lon="6.27538">
        <ele>1213</ele>
        <time>2017-09-07T16:34:57Z</time>
      </trkpt>
      <trkpt lat="43.79577" lon="6.2762">
        <ele>1209</ele>
        <time>2017-09-07T16:36:57Z</time>
      </trkpt>
      <trkpt lat="43.7955" lon="6.27673">
        <ele>1209</ele>
        <time>2017-09-07T16:38:57Z</time>
      </trkpt>
      <trkpt lat="43.79502" lon="6.27773">
        <ele>1207</ele>
        <time>2017-09-07T16:40:57Z</time>
      </trkpt>
      <trkpt lat="43.79477" lon="6.279">
        <ele>1201</ele>
        <time>2017-09-07T16:42:57Z</time>
      </trkpt>
      <trkpt lat="43.7939" lon="6.28224">
        <ele>1207</ele>
        <time>2017-09-07T16:44:57Z</time>
      </trkpt>
      <trkpt lat="43.79368" lon="6.28419">
        <ele>1211</ele>
        <time>2017-09-07T16:46:57Z</time>
      </trkpt>
      <trkpt lat="43.7918" lon="6.28731">
        <ele>1217</ele>
        <time>2017-09-07T16:48:57Z</time>
      </trkpt>
      <trkpt lat="43.79136" lon="6.28719">
        <ele>1218</ele>
        <time>2017-09-07T16:50:57Z</time>
      </trkpt>
      <trkpt lat="43.7905" lon="6.28777">
        <ele>1223</ele>
        <time>2017-09-07T16:52:57Z</time>
      </trkpt>
      <trkpt lat="43.79006" lon="6.28822">
        <ele>1223</ele>
        <time>2017-09-07T16:54:57Z</time>
      </trkpt>
      <trkpt lat="43.78985" lon="6.28935">
        <ele>1220</ele>
        <time>2017-09-07T16:56:57Z</time>
      </trkpt>
      <trkpt lat="43.78855" lon="6.29137">
        <ele>1206</ele>
        <time>2017-09-07T16:58:57Z</time>
      </trkpt>
      <trkpt lat="43.78781" lon="6.29166">
        <ele>1206</ele>
        <time>2017-09-07T17:00:57Z</time>
      </trkpt>
      <trkpt lat="43.7873" lon="6.29217">
        <ele>1212</ele>
        <time>2017-09-07T17:02:57Z</time>
      </trkpt>
      <trkpt lat="43.78653" lon="6.29237">
        <ele>1221</ele>
        <time>2017-09-07T17:04:57Z</time>
      </trkpt>
      <trkpt lat="43.78541" lon="6.2925">
        <ele>1223</ele>
        <time>2017-09-07T17:06:57Z</time>
      </trkpt>
      <trkpt lat="43.78475" lon="6.29391">
        <ele>1221</ele>
        <time>2017-09-07T17:08:57Z</time>
      </trkpt>
      <trkpt lat="43.78408" lon="6.29477">
        <ele>1210</ele>
        <time>2017-09-07T17:10:57Z</time>
      </trkpt>
      <trkpt lat="43.78334" lon="6.29677">
        <ele>1206</ele>
        <time>2017-09-07T17:12:57Z</time>
      </trkpt>
      <trkpt lat="43.78425" lon="6.2987">
        <ele>1213</ele>
        <time>2017-09-07T17:14:57Z</time>
      </trkpt>
      <trkpt lat="43.78596" lon="6.30067">
        <ele>1221</ele>
        <time>2017-09-07T17:16:57Z</time>
      </trkpt>
      <trkpt lat="43.78712" lon="6.30136">
        <ele>1221</ele>
        <time>2017-09-07T17:18:57Z</time>
      </trkpt>
      <trkpt lat="43.78832" lon="6.30174">
        <ele>1220</ele>
        <time>2017-09-07T17:20:57Z</time>
      </trkpt>
      <trkpt lat="43.78847" lon="6.30217">
        <ele>1222</ele>
        <time>2017-09-07T17:22:57Z</time>
      </trkpt>
      <trkpt lat="43.78906" lon="6.30279">
        <ele>1220</ele>
        <time>2017-09-07T17:24:57Z</time>
      </trkpt>
      <trkpt lat="43.78926" lon="6.303">
        <ele>1215</ele>
        <time>2017-09-07T17:26:57Z</time>
      </trkpt>
      <trkpt lat="43.78909" lon="6.30392">
        <ele>1208</ele>
        <time>2017-09-07T17:28:57Z</time>
      </trkpt>
      <trkpt lat="43.78884" lon="6.30479">
        <ele>1206</ele>
        <time>2017-09-07T17:30:57Z</time>
      </trkpt>
      <trkpt lat="43.78861" lon="6.30528">
        <ele>1215</ele>
        <time>2017-09-07T17:32:57Z</time>
      </trkpt>
      <trkpt lat="43.78926" lon="6.30553">
        <ele>1195</ele>
        <time>2017-09-07T17:34:57Z</time>
      </trkpt>
      <trkpt lat="43.78962" lon="6.30582">
        <ele>1190</ele>
        <time>2017-09-07T17:36:57Z</time>
      </trkpt>
      <trkpt lat="43.79018" lon="6.30584">
        <ele>1176</ele>
        <time>2017-09-07T17:38:57Z</time>
      </trkpt>
      <trkpt lat="43.79073" lon="6.30584">
        <ele>1167</ele>
        <time>2017-09-07T17:40:57Z</time>
      </trkpt>
      <trkpt lat="43.79118" lon="6.30589">
        <ele>1160</ele>
        <time>2017-09-07T17:42:57Z</time>
      </trkpt>
      <trkpt lat="43.78983" lon="6.30501">
        <ele>1161</ele>
        <time>2017-09-07T17:44:57Z</time>
      </trkpt>
      <trkpt lat="43.79046" lon="6.3039">
        <ele>1145</ele>
        <time>2017-09-07T17:46:57Z</time>
      </trkpt>
      <trkpt lat="43.79168" lon="6.30282">
        <ele>1120</ele>
        <time>2017-09-07T17:48:57Z</time>
      </trkpt>
      <trkpt lat="43.79304" lon="6.30196">
        <ele>1099</ele>
        <time>2017-09-07T17:50:57Z</time>
      </trkpt>
      <trkpt lat="43.79452" lon="6.30108">
        <ele>1076</ele>
        <time>2017-09-07T17:52:57Z</time>
      </trkpt>
      <trkpt lat="43.79491" lon="6.30066">
        <ele>1072</ele>
        <time>2017-09-07T17:54:57Z</time>
      </trkpt>
      <trkpt lat="43.79466" lon="6.30162">
        <ele>1058</ele>
        <time>2017-09-07T17:56:57Z</time>
      </trkpt>
      <trkpt lat="43.79438" lon="6.30238">
        <ele>1048</ele>
        <time>2017-09-07T17:58:57Z</time>
      </trkpt>
      <trkpt lat="43.7942" lon="6.30348">
        <ele>1042</ele>
        <time>2017-09-07T18:00:57Z</time>
      </trkpt>
      <trkpt lat="43.79491" lon="6.30349">
        <ele>1032</ele>
        <time>2017-09-07T18:02:57Z</time>
      </trkpt>
      <trkpt lat="43.79566" lon="6.30335">
        <ele>1020</ele>
        <time>2017-09-07T18:04:57Z</time>
      </trkpt>
      <trkpt lat="43.79638" lon="6.30311">
        <ele>1014</ele>
        <time>2017-09-07T18:06:57Z</time>
      </trkpt>
      <trkpt lat="43.79677" lon="6.30293">
        <ele>1009</ele>
        <time>2017-09-07T18:08:57Z</time>
      </trkpt>
      <trkpt lat="43.79763" lon="6.30308">
        <ele>1001</ele>
        <time>2017-09-07T18:10:57Z</time>
      </trkpt>
      <trkpt lat="43.79831" lon="6.30299">
        <ele>988</ele>
        <time>2017-09-07T18:12:57Z</time>
      </trkpt>
      <trkpt lat="43.79842" lon="6.3035">
        <ele>987</ele>
        <time>2017-09-07T18:14:57Z</time>
      </trkpt>
      <trkpt lat="43.79874" lon="6.3037">
        <ele>981</ele>
        <time>2017-09-07T18:16:57Z</time>
      </trkpt>
      <trkpt lat="43.79877" lon="6.30462">
        <ele>986</ele>
        <time>2017-09-07T18:18:57Z</time>
      </trkpt>
      <trkpt lat="43.79873" lon="6.30594">
        <ele>993</ele>
        <time>2017-09-07T18:20:57Z</time>
      </trkpt>
      <trkpt lat="43.7987" lon="6.30732">
        <ele>999</ele>
        <time>2017-09-07T18:22:57Z</time>
      </trkpt>
      <trkpt lat="43.79857" lon="6.30864">
        <ele>1006</ele>
        <time>2017-09-07T18:24:57Z</time>
      </trkpt>
      <trkpt lat="43.79868" lon="6.30908">
        <ele>1005</ele>
        <time>2017-09-07T18:26:57Z</time>
      </trkpt>
      <trkpt lat="43.79908" lon="6.30941">
        <ele>998</ele>
        <time>2017-09-07T18:28:57Z</time>
      </trkpt>
      <trkpt lat="43.79895" lon="6.31018">
        <ele>998</ele>
        <time>2017-09-07T18:30:57Z</time>
      </trkpt>
      <trkpt lat="43.79881" lon="6.31131">
        <ele>994</ele>
        <time>2017-09-07T18:32:57Z</time>
      </trkpt>
      <trkpt lat="43.79866" lon="6.31287">
        <ele>990</ele>
        <time>2017-09-07T18:34:57Z</time>
      </trkpt>
      <trkpt lat="43.79871" lon="6.3137">
        <ele>984</ele>
        <time>2017-09-07T18:36:57Z</time>
      </trkpt>
      <trkpt lat="43.79846" lon="6.3148">
        <ele>984</ele>
        <time>2017-09-07T18:38:57Z</time>
      </trkpt>
      <trkpt lat="43.79778" lon="6.31858">
        <ele>981</ele>
        <time>2017-09-07T18:40:57Z</time>
      </trkpt>
      <trkpt lat="43.79661" lon="6.3229">
        <ele>999</ele>
        <time>2017-09-07T18:42:57Z</time>
      </trkpt>
      <trkpt lat="43.79616" lon="6.32666">
        <ele>1027</ele>
        <time>2017-09-07T18:44:57Z</time>
      </trkpt>
      <trkpt lat="43.79593" lon="6.32824">
        <ele>1035</ele>
        <time>2017-09-07T18:46:57Z</time>
      </trkpt>
      <trkpt lat="43.79658" lon="6.33062">
        <ele>1037</ele>
        <time>2017-09-07T18:48:57Z</time>
      </trkpt>
      <trkpt lat="43.7965" lon="6.33163">
        <ele>1040</ele>
        <time>2017-09-07T18:50:57Z</time>
      </trkpt>
      <trkpt lat="43.79658" lon="6.33277">
        <ele>1038</ele>
        <time>2017-09-07T18:52:57Z</time>
      </trkpt>
      <trkpt lat="43.7963" lon="6.33391">
        <ele>1042</ele>
        <time>2017-09-07T18:54:57Z</time>
      </trkpt>
      <trkpt lat="43.79618" lon="6.33423">
        <ele>1044</ele>
        <time>2017-09-07T18:56:57Z</time>
      </trkpt>
      <trkpt lat="43.79602" lon="6.33538">
        <ele>1046</ele>
        <time>2017-09-07T18:58:57Z</time>
      </trkpt>
      <trkpt lat="43.79579" lon="6.33682">
        <ele>1045</ele>
        <time>2017-09-07T19:00:57Z</time>
      </trkpt>
      <trkpt lat="43.79552" lon="6.3383">
        <ele>1054</ele>
        <time>2017-09-07T19:02:57Z</time>
      </trkpt>
      <trkpt lat="43.79555" lon="6.33891">
        <ele>1052</ele>
        <time>2017-09-07T19:04:57Z</time>
      </trkpt>
      <trkpt lat="43.79556" lon="6.33949">
        <ele>1052</ele>
        <time>2017-09-07T19:06:57Z</time>
      </trkpt>
      <trkpt lat="43.7959" lon="6.34003">
        <ele>1048</ele>
        <time>2017-09-07T19:08:57Z</time>
      </trkpt>
      <trkpt lat="43.79594" lon="6.34034">
        <ele>1048</ele>
        <time>2017-09-07T19:10:57Z</time>
      </trkpt>
      <trkpt lat="43.79567" lon="6.34087">
        <ele>1049</ele>
        <time>2017-09-07T19:12:57Z</time>
      </trkpt>
      <trkpt lat="43.79452" lon="6.34082">
        <ele>1043</ele>
        <time>2017-09-07T19:14:57Z</time>
      </trkpt>
      <trkpt lat="43.79456" lon="6.34118">
        <ele>1042</ele>
        <time>2017-09-07T19:16:57Z</time>
      </trkpt>
      <trkpt lat="43.79411" lon="6.34175">
        <ele>1033</ele>
        <time>2017-09-07T19:18:57Z</time>
      </trkpt>
      <trkpt lat="43.79333" lon="6.34278">
        <ele>1021</ele>
        <time>2017-09-07T19:20:57Z</time>
      </trkpt>
      <trkpt lat="43.79298" lon="6.34334">
        <ele>1017</ele>
        <time>2017-09-07T19:22:57Z</time>
      </trkpt>
      <trkpt lat="43.79257" lon="6.34405">
        <ele>1010</ele>
        <time>2017-09-07T19:24:57Z</time>
      </trkpt>
      <trkpt lat="43.79198" lon="6.34481">
        <ele>996</ele>
        <time>2017-09-07T19:26:57Z</time>
      </trkpt>
      <trkpt lat="43.79204" lon="6.34521">
        <ele>997</ele>
        <time>2017-09-07T19:28:57Z</time>
      </trkpt>
      <trkpt lat="43.79196" lon="6.34529">
        <ele>994</ele>
        <time>2017-09-07T19:30:57Z</time>
      </trkpt>
      <trkpt lat="43.79198" lon="6.34577">
        <ele>991</ele>
        <time>2017-09-07T19:32:57Z</time>
      </trkpt>
      <trkpt lat="43.79137" lon="6.34611">
        <ele>978</ele>
        <time>2017-09-07T19:34:57Z</time>
      </trkpt>
      <trkpt lat="43.79095" lon="6.34533">
        <ele>974</ele>
        <time>2017-09-07T19:36:57Z</time>
      </trkpt>
      <trkpt lat="43.79075" lon="6.34454">
        <ele>969</ele>
        <time>2017-09-07T19:38:57Z</time>
      </trkpt>
      <trkpt lat="43.78989" lon="6.34406">
        <ele>962</ele>
        <time>2017-09-07T19:40:57Z</time>
      </trkpt>
      <trkpt lat="43.78936" lon="6.34421">
        <ele>954</ele>
        <time>2017-09-07T19:42:57Z</time>
      </trkpt>
      <trkpt lat="43.78895" lon="6.34417">
        <ele>948</ele>
        <time>2017-09-07T19:44:57Z</time>
      </trkpt>
      <trkpt lat="43.78777" lon="6.3443">
        <ele>939</ele>
        <time>2017-09-07T19:46:57Z</time>
      </trkpt>
      <trkpt lat="43.78726" lon="6.34459">
        <ele>936</ele>
        <time>2017-09-07T19:48:57Z</time>
      </trkpt>
      <trkpt lat="43.7864" lon="6.34448">
        <ele>931</ele>
        <time>2017-09-07T19:50:57Z</time>
      </trkpt>
      <trkpt lat="43.78597" lon="6.34428">
        <ele>928</ele>
        <time>2017-09-07T19:52:57Z</time>
      </trkpt>
      <trkpt lat="43.78548" lon="6.34464">
        <ele>930</ele>
        <time>2017-09-07T19:54:57Z</time>
      </trkpt>
      <trkpt lat="43.78488" lon="6.3448">
        <ele>929</ele>
        <time>2017-09-07T19:56:57Z</time>
      </trkpt>
      <trkpt lat="43.78422" lon="6.34525">
        <ele>924</ele>
        <time>2017-09-07T19:58:57Z</time>
      </trkpt>
      <trkpt lat="43.78401" lon="6.3454">
        <ele>922</ele>
        <time>2017-09-07T20:00:57Z</time>
      </trkpt>
      <trkpt lat="43.78367" lon="6.3454">
        <ele>919</ele>
        <time>2017-09-07T20:02:57Z</time>
      </trkpt>
      <trkpt lat="43.78347" lon="6.34539">
        <ele>918</ele>
        <time>2017-09-07T20:04:57Z</time>
      </trkpt>
      <trkpt lat="43.78324" lon="6.34533">
        <ele>917</ele>
        <time>2017-09-07T20:06:57Z</time>
      </trkpt>
      <trkpt lat="43.78287" lon="6.34515">
        <ele>916</ele>
        <time>2017-09-07T20:08:57Z</time>
      </trkpt>
      <trkpt lat="43.78256" lon="6.34518">
        <ele>915</ele>
        <time>2017-09-07T20:10:57Z</time>
      </trkpt>
      <trkpt lat="43.7824" lon="6.34527">
        <ele>914</ele>
        <time>2017-09-07T20:12:57Z</time>
      </trkpt>
      <trkpt lat="43.78195" lon="6.34508">
        <ele>910</ele>
        <time>2017-09-07T20:14:57Z</time>
      </trkpt>
      <trkpt lat="43.78041" lon="6.34309">
        <ele>921</ele>
        <time>2017-09-07T20:16:57Z</time>
      </trkpt>
    </trkseg>
  </trk>
</gpx>